sensor_id;sensor_type;location;lat;lon;timestamp;P1;durP1;ratioP1;P2;durP2;ratioP2
62102;SDS011;48077;48.104;11.702;2024-02-04T00:01:11;4.82;;;4.32;;
62102;SDS011;48077;48.104;11.702;2024-02-04T00:03:39;6.10;;;5.03;;
62102;SDS011;48077;48.104;11.702;2024-02-04T00:06:07;6.60;;;4.53;;
62102;SDS011;48077;48.104;11.702;2024-02-04T00:08:35;5.57;;;5.07;;
62102;SDS011;48077;48.104;11.702;2024-02-04T00:11:03;6.40;;;5.03;;
62102;SDS011;48077;48.104;11.702;2024-02-04T00:13:34;5.57;;;5.05;;
62102;SDS011;48077;48.104;11.702;2024-02-04T00:16:03;5.95;;;4.63;;
62102;SDS011;48077;48.104;11.702;2024-02-04T00:18:32;6.32;;;5.53;;
62102;SDS011;48077;48.104;11.702;2024-02-04T00:21:00;4.82;;;4.30;;
62102;SDS011;48077;48.104;11.702;2024-02-04T00:23:27;6.32;;;4.68;;
62102;SDS011;48077;48.104;11.702;2024-02-04T00:25:55;6.80;;;5.95;;
62102;SDS011;48077;48.104;11.702;2024-02-04T00:30:50;6.80;;;6.13;;
62102;SDS011;48077;48.104;11.702;2024-02-04T00:33:23;6.68;;;5.80;;
62102;SDS011;48077;48.104;11.702;2024-02-04T00:35:51;7.47;;;5.43;;
62102;SDS011;48077;48.104;11.702;2024-02-04T00:38:18;5.97;;;5.43;;
62102;SDS011;48077;48.104;11.702;2024-02-04T00:43:14;6.13;;;5.55;;
62102;SDS011;48077;48.104;11.702;2024-02-04T00:48:09;5.43;;;4.97;;
62102;SDS011;48077;48.104;11.702;2024-02-04T00:50:38;5.60;;;4.57;;
62102;SDS011;48077;48.104;11.702;2024-02-04T00:53:07;5.85;;;5.28;;
62102;SDS011;48077;48.104;11.702;2024-02-04T00:55:35;5.72;;;5.13;;
62102;SDS011;48077;48.104;11.702;2024-02-04T00:58:03;5.63;;;5.03;;
62102;SDS011;48077;48.104;11.702;2024-02-04T01:00:30;5.43;;;4.93;;
62102;SDS011;48077;48.104;11.702;2024-02-04T01:07:44;4.78;;;3.92;;
62102;SDS011;48077;48.104;11.702;2024-02-04T01:10:12;6.30;;;5.00;;
62102;SDS011;48077;48.104;11.702;2024-02-04T01:12:40;6.53;;;4.43;;
62102;SDS011;48077;48.104;11.702;2024-02-04T01:17:35;5.30;;;3.58;;
62102;SDS011;48077;48.104;11.702;2024-02-04T01:22:31;6.55;;;4.57;;
62102;SDS011;48077;48.104;11.702;2024-02-04T01:27:29;6.82;;;4.82;;
62102;SDS011;48077;48.104;11.702;2024-02-04T01:29:57;6.53;;;4.88;;
62102;SDS011;48077;48.104;11.702;2024-02-04T01:32:24;5.95;;;4.38;;
62102;SDS011;48077;48.104;11.702;2024-02-04T01:34:52;6.13;;;4.78;;
62102;SDS011;48077;48.104;11.702;2024-02-04T01:37:20;4.72;;;3.85;;
62102;SDS011;48077;48.104;11.702;2024-02-04T01:39:48;5.30;;;4.20;;
62102;SDS011;48077;48.104;11.702;2024-02-04T01:44:45;4.22;;;3.83;;
62102;SDS011;48077;48.104;11.702;2024-02-04T01:47:12;7.55;;;4.70;;
62102;SDS011;48077;48.104;11.702;2024-02-04T01:49:40;6.13;;;4.40;;
62102;SDS011;48077;48.104;11.702;2024-02-04T01:52:10;6.63;;;4.32;;
62102;SDS011;48077;48.104;11.702;2024-02-04T01:54:39;7.93;;;5.20;;
62102;SDS011;48077;48.104;11.702;2024-02-04T01:57:09;7.05;;;5.15;;
62102;SDS011;48077;48.104;11.702;2024-02-04T01:59:39;6.22;;;4.82;;
62102;SDS011;48077;48.104;11.702;2024-02-04T02:02:07;6.07;;;5.20;;
62102;SDS011;48077;48.104;11.702;2024-02-04T02:04:35;8.13;;;4.40;;
62102;SDS011;48077;48.104;11.702;2024-02-04T02:09:34;5.35;;;4.60;;
62102;SDS011;48077;48.104;11.702;2024-02-04T02:12:03;5.13;;;3.92;;
62102;SDS011;48077;48.104;11.702;2024-02-04T02:14:39;6.05;;;4.85;;
62102;SDS011;48077;48.104;11.702;2024-02-04T02:17:11;6.28;;;4.57;;
62102;SDS011;48077;48.104;11.702;2024-02-04T02:19:46;6.10;;;4.28;;
62102;SDS011;48077;48.104;11.702;2024-02-04T02:22:26;6.80;;;4.88;;
62102;SDS011;48077;48.104;11.702;2024-02-04T02:24:58;5.55;;;4.15;;
62102;SDS011;48077;48.104;11.702;2024-02-04T02:27:27;7.13;;;4.15;;
62102;SDS011;48077;48.104;11.702;2024-02-04T02:29:54;5.75;;;3.90;;
62102;SDS011;48077;48.104;11.702;2024-02-04T02:34:50;4.63;;;3.15;;
62102;SDS011;48077;48.104;11.702;2024-02-04T02:37:21;5.28;;;3.90;;
62102;SDS011;48077;48.104;11.702;2024-02-04T02:39:58;4.72;;;3.40;;
62102;SDS011;48077;48.104;11.702;2024-02-04T02:42:31;4.93;;;3.92;;
62102;SDS011;48077;48.104;11.702;2024-02-04T02:45:00;6.75;;;5.28;;
62102;SDS011;48077;48.104;11.702;2024-02-04T02:47:28;11.95;;;5.57;;
62102;SDS011;48077;48.104;11.702;2024-02-04T02:49:56;6.32;;;4.93;;
62102;SDS011;48077;48.104;11.702;2024-02-04T02:52:24;5.57;;;3.85;;
62102;SDS011;48077;48.104;11.702;2024-02-04T02:57:21;6.75;;;4.07;;
62102;SDS011;48077;48.104;11.702;2024-02-04T02:59:49;5.57;;;3.65;;
62102;SDS011;48077;48.104;11.702;2024-02-04T03:02:17;5.10;;;3.55;;
62102;SDS011;48077;48.104;11.702;2024-02-04T03:07:12;7.38;;;4.30;;
62102;SDS011;48077;48.104;11.702;2024-02-04T03:12:08;5.25;;;4.30;;
62102;SDS011;48077;48.104;11.702;2024-02-04T03:14:37;5.45;;;4.10;;
62102;SDS011;48077;48.104;11.702;2024-02-04T03:17:04;5.15;;;3.90;;
62102;SDS011;48077;48.104;11.702;2024-02-04T03:19:32;6.25;;;4.22;;
62102;SDS011;48077;48.104;11.702;2024-02-04T03:22:00;5.50;;;4.15;;
62102;SDS011;48077;48.104;11.702;2024-02-04T03:24:28;4.47;;;3.42;;
62102;SDS011;48077;48.104;11.702;2024-02-04T03:26:56;5.13;;;3.83;;
62102;SDS011;48077;48.104;11.702;2024-02-04T03:29:24;6.25;;;4.05;;
62102;SDS011;48077;48.104;11.702;2024-02-04T03:31:53;5.60;;;4.13;;
62102;SDS011;48077;48.104;11.702;2024-02-04T03:34:22;6.18;;;4.20;;
62102;SDS011;48077;48.104;11.702;2024-02-04T03:36:50;6.03;;;3.45;;
62102;SDS011;48077;48.104;11.702;2024-02-04T03:39:18;4.45;;;3.15;;
62102;SDS011;48077;48.104;11.702;2024-02-04T03:41:46;5.55;;;3.90;;
62102;SDS011;48077;48.104;11.702;2024-02-04T03:44:14;18.80;;;9.25;;
62102;SDS011;48077;48.104;11.702;2024-02-04T03:46:41;6.22;;;4.07;;
62102;SDS011;48077;48.104;11.702;2024-02-04T03:49:11;7.28;;;4.93;;
62102;SDS011;48077;48.104;11.702;2024-02-04T03:51:38;5.72;;;3.85;;
62102;SDS011;48077;48.104;11.702;2024-02-04T03:54:06;4.47;;;3.28;;
62102;SDS011;48077;48.104;11.702;2024-02-04T03:56:34;4.20;;;3.72;;
62102;SDS011;48077;48.104;11.702;2024-02-04T03:59:02;5.10;;;3.28;;
62102;SDS011;48077;48.104;11.702;2024-02-04T04:01:30;4.18;;;3.13;;
62102;SDS011;48077;48.104;11.702;2024-02-04T04:03:58;3.67;;;2.72;;
62102;SDS011;48077;48.104;11.702;2024-02-04T04:06:27;4.10;;;2.95;;
62102;SDS011;48077;48.104;11.702;2024-02-04T04:08:55;3.40;;;2.58;;
62102;SDS011;48077;48.104;11.702;2024-02-04T04:11:25;4.85;;;3.65;;
62102;SDS011;48077;48.104;11.702;2024-02-04T04:13:53;4.95;;;3.50;;
62102;SDS011;48077;48.104;11.702;2024-02-04T04:18:49;4.43;;;2.95;;
62102;SDS011;48077;48.104;11.702;2024-02-04T04:21:17;3.80;;;2.90;;
62102;SDS011;48077;48.104;11.702;2024-02-04T04:23:46;3.55;;;3.00;;
62102;SDS011;48077;48.104;11.702;2024-02-04T04:26:14;2.50;;;2.30;;
62102;SDS011;48077;48.104;11.702;2024-02-04T04:28:42;4.88;;;2.70;;
62102;SDS011;48077;48.104;11.702;2024-02-04T04:33:37;3.45;;;2.47;;
62102;SDS011;48077;48.104;11.702;2024-02-04T04:36:05;3.70;;;2.30;;
62102;SDS011;48077;48.104;11.702;2024-02-04T04:38:34;3.60;;;2.33;;
62102;SDS011;48077;48.104;11.702;2024-02-04T04:43:36;4.18;;;2.63;;
62102;SDS011;48077;48.104;11.702;2024-02-04T04:46:04;4.30;;;3.00;;
62102;SDS011;48077;48.104;11.702;2024-02-04T04:48:32;3.58;;;2.33;;
62102;SDS011;48077;48.104;11.702;2024-02-04T04:51:00;3.53;;;2.78;;
62102;SDS011;48077;48.104;11.702;2024-02-04T04:53:28;4.28;;;2.92;;
62102;SDS011;48077;48.104;11.702;2024-02-04T04:55:55;3.28;;;2.50;;
62102;SDS011;48077;48.104;11.702;2024-02-04T04:58:25;4.28;;;2.60;;
62102;SDS011;48077;48.104;11.702;2024-02-04T05:04:42;3.90;;;2.78;;
62102;SDS011;48077;48.104;11.702;2024-02-04T05:07:10;4.13;;;3.17;;
62102;SDS011;48077;48.104;11.702;2024-02-04T05:09:38;2.70;;;2.30;;
62102;SDS011;48077;48.104;11.702;2024-02-04T05:12:06;3.95;;;2.35;;
62102;SDS011;48077;48.104;11.702;2024-02-04T05:14:37;4.10;;;2.47;;
62102;SDS011;48077;48.104;11.702;2024-02-04T05:17:04;3.45;;;2.65;;
62102;SDS011;48077;48.104;11.702;2024-02-04T05:19:32;4.00;;;2.35;;
62102;SDS011;48077;48.104;11.702;2024-02-04T05:22:00;3.20;;;2.90;;
62102;SDS011;48077;48.104;11.702;2024-02-04T05:24:29;3.05;;;2.72;;
62102;SDS011;48077;48.104;11.702;2024-02-04T05:26:57;2.95;;;2.50;;
62102;SDS011;48077;48.104;11.702;2024-02-04T05:29:24;4.85;;;2.40;;
62102;SDS011;48077;48.104;11.702;2024-02-04T05:31:54;3.22;;;2.72;;
62102;SDS011;48077;48.104;11.702;2024-02-04T05:34:21;5.05;;;2.47;;
62102;SDS011;48077;48.104;11.702;2024-02-04T05:36:49;2.33;;;1.77;;
62102;SDS011;48077;48.104;11.702;2024-02-04T05:39:17;3.60;;;2.50;;
62102;SDS011;48077;48.104;11.702;2024-02-04T05:41:45;3.53;;;1.95;;
62102;SDS011;48077;48.104;11.702;2024-02-04T05:46:40;3.42;;;2.40;;
62102;SDS011;48077;48.104;11.702;2024-02-04T05:49:10;3.65;;;2.45;;
62102;SDS011;48077;48.104;11.702;2024-02-04T05:51:39;3.22;;;2.15;;
62102;SDS011;48077;48.104;11.702;2024-02-04T05:54:07;5.07;;;2.20;;
62102;SDS011;48077;48.104;11.702;2024-02-04T05:56:35;4.75;;;3.00;;
62102;SDS011;48077;48.104;11.702;2024-02-04T06:01:31;4.03;;;3.65;;
62102;SDS011;48077;48.104;11.702;2024-02-04T06:03:59;4.07;;;2.72;;
62102;SDS011;48077;48.104;11.702;2024-02-04T06:06:28;4.72;;;2.88;;
62102;SDS011;48077;48.104;11.702;2024-02-04T06:08:57;5.28;;;2.85;;
62102;SDS011;48077;48.104;11.702;2024-02-04T06:11:24;7.13;;;2.53;;
62102;SDS011;48077;48.104;11.702;2024-02-04T06:13:52;4.32;;;2.78;;
62102;SDS011;48077;48.104;11.702;2024-02-04T06:16:20;5.13;;;3.80;;
62102;SDS011;48077;48.104;11.702;2024-02-04T06:21:15;4.53;;;2.35;;
62102;SDS011;48077;48.104;11.702;2024-02-04T06:23:45;4.00;;;3.38;;
62102;SDS011;48077;48.104;11.702;2024-02-04T06:26:12;4.05;;;2.45;;
62102;SDS011;48077;48.104;11.702;2024-02-04T06:28:40;4.60;;;2.33;;
62102;SDS011;48077;48.104;11.702;2024-02-04T06:31:11;8.23;;;2.97;;
62102;SDS011;48077;48.104;11.702;2024-02-04T06:33:39;4.38;;;2.67;;
62102;SDS011;48077;48.104;11.702;2024-02-04T06:36:08;3.95;;;2.58;;
62102;SDS011;48077;48.104;11.702;2024-02-04T06:38:36;5.47;;;3.20;;
62102;SDS011;48077;48.104;11.702;2024-02-04T06:41:05;4.32;;;2.72;;
62102;SDS011;48077;48.104;11.702;2024-02-04T06:43:36;4.10;;;2.13;;
62102;SDS011;48077;48.104;11.702;2024-02-04T06:46:04;5.90;;;2.63;;
62102;SDS011;48077;48.104;11.702;2024-02-04T06:48:32;4.20;;;3.47;;
62102;SDS011;48077;48.104;11.702;2024-02-04T06:51:00;6.05;;;2.58;;
62102;SDS011;48077;48.104;11.702;2024-02-04T06:53:28;5.53;;;3.78;;
62102;SDS011;48077;48.104;11.702;2024-02-04T06:55:55;4.80;;;3.33;;
62102;SDS011;48077;48.104;11.702;2024-02-04T07:00:52;4.25;;;3.33;;
62102;SDS011;48077;48.104;11.702;2024-02-04T07:03:20;4.25;;;3.15;;
62102;SDS011;48077;48.104;11.702;2024-02-04T07:05:47;3.38;;;2.65;;
62102;SDS011;48077;48.104;11.702;2024-02-04T07:08:15;4.97;;;2.55;;
62102;SDS011;48077;48.104;11.702;2024-02-04T07:10:43;3.72;;;2.45;;
62102;SDS011;48077;48.104;11.702;2024-02-04T07:13:11;5.07;;;3.28;;
62102;SDS011;48077;48.104;11.702;2024-02-04T07:15:41;4.38;;;2.67;;
62102;SDS011;48077;48.104;11.702;2024-02-04T07:18:08;5.20;;;3.42;;
62102;SDS011;48077;48.104;11.702;2024-02-04T07:20:36;4.78;;;3.22;;
62102;SDS011;48077;48.104;11.702;2024-02-04T07:23:04;4.82;;;3.50;;
62102;SDS011;48077;48.104;11.702;2024-02-04T07:25:32;6.68;;;4.00;;
62102;SDS011;48077;48.104;11.702;2024-02-04T07:28:02;5.57;;;2.97;;
62102;SDS011;48077;48.104;11.702;2024-02-04T07:30:30;8.05;;;4.53;;
62102;SDS011;48077;48.104;11.702;2024-02-04T07:35:27;7.18;;;4.15;;
62102;SDS011;48077;48.104;11.702;2024-02-04T07:37:55;8.18;;;4.50;;
62102;SDS011;48077;48.104;11.702;2024-02-04T07:42:50;10.55;;;4.30;;
62102;SDS011;48077;48.104;11.702;2024-02-04T07:45:18;12.75;;;5.20;;
62102;SDS011;48077;48.104;11.702;2024-02-04T07:50:15;6.88;;;4.05;;
62102;SDS011;48077;48.104;11.702;2024-02-04T07:52:43;9.93;;;3.97;;
62102;SDS011;48077;48.104;11.702;2024-02-04T07:55:11;9.20;;;3.67;;
62102;SDS011;48077;48.104;11.702;2024-02-04T07:57:38;11.02;;;5.07;;
62102;SDS011;48077;48.104;11.702;2024-02-04T08:00:06;9.57;;;4.55;;
62102;SDS011;48077;48.104;11.702;2024-02-04T08:02:36;9.75;;;5.50;;
62102;SDS011;48077;48.104;11.702;2024-02-04T08:05:04;7.97;;;4.38;;
62102;SDS011;48077;48.104;11.702;2024-02-04T08:07:34;8.02;;;5.68;;
62102;SDS011;48077;48.104;11.702;2024-02-04T08:10:02;9.23;;;4.25;;
62102;SDS011;48077;48.104;11.702;2024-02-04T08:12:30;10.15;;;5.32;;
62102;SDS011;48077;48.104;11.702;2024-02-04T08:14:58;5.68;;;3.85;;
62102;SDS011;48077;48.104;11.702;2024-02-04T08:19:57;14.10;;;4.30;;
62102;SDS011;48077;48.104;11.702;2024-02-04T08:22:25;5.95;;;3.60;;
62102;SDS011;48077;48.104;11.702;2024-02-04T08:24:54;7.65;;;3.45;;
62102;SDS011;48077;48.104;11.702;2024-02-04T08:27:22;7.13;;;3.53;;
62102;SDS011;48077;48.104;11.702;2024-02-04T08:29:49;7.75;;;4.10;;
62102;SDS011;48077;48.104;11.702;2024-02-04T08:32:17;6.07;;;3.47;;
62102;SDS011;48077;48.104;11.702;2024-02-04T08:34:45;5.95;;;3.30;;
62102;SDS011;48077;48.104;11.702;2024-02-04T08:37:14;8.32;;;2.80;;
62102;SDS011;48077;48.104;11.702;2024-02-04T08:39:41;5.32;;;3.50;;
62102;SDS011;48077;48.104;11.702;2024-02-04T08:42:10;9.27;;;3.70;;
62102;SDS011;48077;48.104;11.702;2024-02-04T08:44:38;4.03;;;2.85;;
62102;SDS011;48077;48.104;11.702;2024-02-04T08:47:07;4.57;;;3.33;;
62102;SDS011;48077;48.104;11.702;2024-02-04T08:49:37;5.90;;;2.70;;
62102;SDS011;48077;48.104;11.702;2024-02-04T08:52:05;5.47;;;3.22;;
62102;SDS011;48077;48.104;11.702;2024-02-04T08:54:33;7.22;;;2.40;;
62102;SDS011;48077;48.104;11.702;2024-02-04T08:57:00;7.93;;;3.17;;
62102;SDS011;48077;48.104;11.702;2024-02-04T08:59:30;5.25;;;2.80;;
62102;SDS011;48077;48.104;11.702;2024-02-04T09:01:57;5.50;;;2.97;;
62102;SDS011;48077;48.104;11.702;2024-02-04T09:04:24;4.97;;;3.00;;
62102;SDS011;48077;48.104;11.702;2024-02-04T09:06:52;3.25;;;2.67;;
62102;SDS011;48077;48.104;11.702;2024-02-04T09:09:20;5.60;;;2.83;;
62102;SDS011;48077;48.104;11.702;2024-02-04T09:11:48;4.50;;;2.97;;
62102;SDS011;48077;48.104;11.702;2024-02-04T09:14:16;5.40;;;2.72;;
62102;SDS011;48077;48.104;11.702;2024-02-04T09:16:45;5.28;;;1.90;;
62102;SDS011;48077;48.104;11.702;2024-02-04T09:19:13;6.25;;;3.35;;
62102;SDS011;48077;48.104;11.702;2024-02-04T09:21:41;5.93;;;2.95;;
62102;SDS011;48077;48.104;11.702;2024-02-04T09:24:09;5.07;;;2.08;;
62102;SDS011;48077;48.104;11.702;2024-02-04T09:26:37;5.22;;;2.28;;
62102;SDS011;48077;48.104;11.702;2024-02-04T09:29:05;6.95;;;2.55;;
62102;SDS011;48077;48.104;11.702;2024-02-04T09:31:33;6.22;;;2.40;;
62102;SDS011;48077;48.104;11.702;2024-02-04T09:34:02;4.97;;;2.67;;
62102;SDS011;48077;48.104;11.702;2024-02-04T09:36:30;8.93;;;2.35;;
62102;SDS011;48077;48.104;11.702;2024-02-04T09:38:58;7.65;;;2.72;;
62102;SDS011;48077;48.104;11.702;2024-02-04T09:41:26;3.70;;;2.30;;
62102;SDS011;48077;48.104;11.702;2024-02-04T09:43:54;4.72;;;3.38;;
62102;SDS011;48077;48.104;11.702;2024-02-04T09:46:24;5.38;;;3.30;;
62102;SDS011;48077;48.104;11.702;2024-02-04T09:48:52;5.65;;;2.95;;
62102;SDS011;48077;48.104;11.702;2024-02-04T09:51:24;6.68;;;3.72;;
62102;SDS011;48077;48.104;11.702;2024-02-04T09:53:53;8.80;;;3.90;;
62102;SDS011;48077;48.104;11.702;2024-02-04T09:56:24;3.95;;;3.00;;
62102;SDS011;48077;48.104;11.702;2024-02-04T09:58:53;6.07;;;2.88;;
62102;SDS011;48077;48.104;11.702;2024-02-04T10:01:21;7.13;;;2.88;;
62102;SDS011;48077;48.104;11.702;2024-02-04T10:03:49;3.78;;;2.45;;
62102;SDS011;48077;48.104;11.702;2024-02-04T10:06:17;6.25;;;3.17;;
62102;SDS011;48077;48.104;11.702;2024-02-04T10:08:46;5.70;;;2.42;;
62102;SDS011;48077;48.104;11.702;2024-02-04T10:11:15;8.82;;;3.30;;
62102;SDS011;48077;48.104;11.702;2024-02-04T10:13:44;6.00;;;2.97;;
62102;SDS011;48077;48.104;11.702;2024-02-04T10:16:12;9.57;;;2.90;;
62102;SDS011;48077;48.104;11.702;2024-02-04T10:18:41;4.93;;;3.30;;
62102;SDS011;48077;48.104;11.702;2024-02-04T10:21:16;7.00;;;3.47;;
62102;SDS011;48077;48.104;11.702;2024-02-04T10:23:44;4.43;;;2.65;;
62102;SDS011;48077;48.104;11.702;2024-02-04T10:26:14;6.78;;;2.97;;
62102;SDS011;48077;48.104;11.702;2024-02-04T10:28:44;5.43;;;2.85;;
62102;SDS011;48077;48.104;11.702;2024-02-04T10:31:13;5.97;;;2.33;;
62102;SDS011;48077;48.104;11.702;2024-02-04T10:33:41;3.78;;;2.50;;
62102;SDS011;48077;48.104;11.702;2024-02-04T10:36:09;5.30;;;3.33;;
62102;SDS011;48077;48.104;11.702;2024-02-04T10:38:37;3.88;;;2.50;;
62102;SDS011;48077;48.104;11.702;2024-02-04T10:41:06;4.97;;;2.80;;
62102;SDS011;48077;48.104;11.702;2024-02-04T10:43:34;6.53;;;2.65;;
62102;SDS011;48077;48.104;11.702;2024-02-04T10:46:05;4.20;;;2.80;;
62102;SDS011;48077;48.104;11.702;2024-02-04T10:48:37;3.55;;;2.28;;
62102;SDS011;48077;48.104;11.702;2024-02-04T10:51:10;4.95;;;2.88;;
62102;SDS011;48077;48.104;11.702;2024-02-04T10:53:41;5.47;;;2.55;;
62102;SDS011;48077;48.104;11.702;2024-02-04T10:56:13;4.47;;;1.88;;
62102;SDS011;48077;48.104;11.702;2024-02-04T10:58:46;2.13;;;1.83;;
62102;SDS011;48077;48.104;11.702;2024-02-04T11:01:14;5.10;;;2.17;;
62102;SDS011;48077;48.104;11.702;2024-02-04T11:03:43;3.47;;;2.38;;
62102;SDS011;48077;48.104;11.702;2024-02-04T11:06:13;5.35;;;2.08;;
62102;SDS011;48077;48.104;11.702;2024-02-04T11:08:41;6.53;;;2.55;;
62102;SDS011;48077;48.104;11.702;2024-02-04T11:11:09;3.83;;;1.58;;
62102;SDS011;48077;48.104;11.702;2024-02-04T11:13:39;5.82;;;1.55;;
62102;SDS011;48077;48.104;11.702;2024-02-04T11:16:12;2.17;;;1.50;;
62102;SDS011;48077;48.104;11.702;2024-02-04T11:18:53;4.60;;;2.67;;
62102;SDS011;48077;48.104;11.702;2024-02-04T11:21:41;3.70;;;1.45;;
62102;SDS011;48077;48.104;11.702;2024-02-04T11:24:34;2.38;;;2.10;;
62102;SDS011;48077;48.104;11.702;2024-02-04T11:27:19;4.85;;;2.72;;
62102;SDS011;48077;48.104;11.702;2024-02-04T11:29:50;3.20;;;1.35;;
62102;SDS011;48077;48.104;11.702;2024-02-04T11:32:18;3.40;;;1.92;;
62102;SDS011;48077;48.104;11.702;2024-02-04T11:34:46;1.00;;;0.90;;
62102;SDS011;48077;48.104;11.702;2024-02-04T11:37:15;3.78;;;1.95;;
62102;SDS011;48077;48.104;11.702;2024-02-04T11:39:49;2.22;;;1.10;;
62102;SDS011;48077;48.104;11.702;2024-02-04T11:42:18;2.92;;;2.72;;
62102;SDS011;48077;48.104;11.702;2024-02-04T11:44:46;3.65;;;1.15;;
62102;SDS011;48077;48.104;11.702;2024-02-04T11:47:23;2.03;;;1.48;;
62102;SDS011;48077;48.104;11.702;2024-02-04T11:49:55;3.00;;;1.95;;
62102;SDS011;48077;48.104;11.702;2024-02-04T11:52:26;4.22;;;1.10;;
62102;SDS011;48077;48.104;11.702;2024-02-04T11:54:55;1.60;;;1.40;;
62102;SDS011;48077;48.104;11.702;2024-02-04T11:57:23;2.60;;;1.15;;
62102;SDS011;48077;48.104;11.702;2024-02-04T11:59:52;3.47;;;1.27;;
62102;SDS011;48077;48.104;11.702;2024-02-04T12:02:21;3.08;;;1.42;;
62102;SDS011;48077;48.104;11.702;2024-02-04T12:04:51;2.45;;;0.85;;
62102;SDS011;48077;48.104;11.702;2024-02-04T12:07:19;3.50;;;1.48;;
62102;SDS011;48077;48.104;11.702;2024-02-04T12:09:47;2.17;;;0.80;;
62102;SDS011;48077;48.104;11.702;2024-02-04T12:12:16;0.73;;;0.73;;
62102;SDS011;48077;48.104;11.702;2024-02-04T12:14:44;2.92;;;1.00;;
62102;SDS011;48077;48.104;11.702;2024-02-04T12:17:14;2.20;;;1.27;;
62102;SDS011;48077;48.104;11.702;2024-02-04T12:19:43;8.50;;;3.65;;
62102;SDS011;48077;48.104;11.702;2024-02-04T12:22:11;1.48;;;1.15;;
62102;SDS011;48077;48.104;11.702;2024-02-04T12:24:39;3.03;;;0.88;;
62102;SDS011;48077;48.104;11.702;2024-02-04T12:27:07;2.67;;;1.17;;
62102;SDS011;48077;48.104;11.702;2024-02-04T12:29:35;2.50;;;0.77;;
62102;SDS011;48077;48.104;11.702;2024-02-04T12:32:03;2.47;;;0.60;;
62102;SDS011;48077;48.104;11.702;2024-02-04T12:34:32;2.90;;;1.45;;
62102;SDS011;48077;48.104;11.702;2024-02-04T12:37:04;3.13;;;1.15;;
62102;SDS011;48077;48.104;11.702;2024-02-04T12:39:32;1.30;;;0.70;;
62102;SDS011;48077;48.104;11.702;2024-02-04T12:42:00;4.43;;;1.10;;
62102;SDS011;48077;48.104;11.702;2024-02-04T12:44:28;1.67;;;0.77;;
62102;SDS011;48077;48.104;11.702;2024-02-04T12:46:55;4.57;;;1.50;;
62102;SDS011;48077;48.104;11.702;2024-02-04T12:49:23;1.67;;;0.95;;
62102;SDS011;48077;48.104;11.702;2024-02-04T12:51:52;3.50;;;3.20;;
62102;SDS011;48077;48.104;11.702;2024-02-04T12:54:23;4.38;;;1.70;;
62102;SDS011;48077;48.104;11.702;2024-02-04T12:56:52;3.00;;;0.98;;
62102;SDS011;48077;48.104;11.702;2024-02-04T12:59:27;1.30;;;1.08;;
62102;SDS011;48077;48.104;11.702;2024-02-04T13:01:56;2.30;;;1.20;;
62102;SDS011;48077;48.104;11.702;2024-02-04T13:04:32;8.18;;;1.40;;
62102;SDS011;48077;48.104;11.702;2024-02-04T13:07:01;1.67;;;1.52;;
62102;SDS011;48077;48.104;11.702;2024-02-04T13:09:35;2.53;;;1.52;;
62102;SDS011;48077;48.104;11.702;2024-02-04T13:12:03;3.65;;;1.42;;
62102;SDS011;48077;48.104;11.702;2024-02-04T13:14:31;2.17;;;1.38;;
62102;SDS011;48077;48.104;11.702;2024-02-04T13:16:59;3.28;;;0.98;;
62102;SDS011;48077;48.104;11.702;2024-02-04T13:19:31;1.65;;;0.90;;
62102;SDS011;48077;48.104;11.702;2024-02-04T13:22:00;1.75;;;0.95;;
62102;SDS011;48077;48.104;11.702;2024-02-04T13:24:28;3.90;;;0.95;;
62102;SDS011;48077;48.104;11.702;2024-02-04T13:26:58;1.80;;;1.17;;
62102;SDS011;48077;48.104;11.702;2024-02-04T13:29:27;4.25;;;0.80;;
62102;SDS011;48077;48.104;11.702;2024-02-04T13:31:54;2.80;;;0.93;;
62102;SDS011;48077;48.104;11.702;2024-02-04T13:34:24;2.10;;;0.82;;
62102;SDS011;48077;48.104;11.702;2024-02-04T13:36:51;2.70;;;1.55;;
62102;SDS011;48077;48.104;11.702;2024-02-04T13:39:19;3.80;;;1.45;;
62102;SDS011;48077;48.104;11.702;2024-02-04T13:41:47;6.45;;;1.33;;
62102;SDS011;48077;48.104;11.702;2024-02-04T13:44:16;4.57;;;1.75;;
62102;SDS011;48077;48.104;11.702;2024-02-04T13:46:44;4.82;;;1.42;;
62102;SDS011;48077;48.104;11.702;2024-02-04T13:49:12;6.03;;;1.15;;
62102;SDS011;48077;48.104;11.702;2024-02-04T13:51:40;2.63;;;1.15;;
62102;SDS011;48077;48.104;11.702;2024-02-04T13:54:11;2.03;;;1.88;;
62102;SDS011;48077;48.104;11.702;2024-02-04T13:56:42;2.83;;;1.35;;
62102;SDS011;48077;48.104;11.702;2024-02-04T13:59:10;2.83;;;1.45;;
62102;SDS011;48077;48.104;11.702;2024-02-04T14:01:39;1.50;;;1.08;;
62102;SDS011;48077;48.104;11.702;2024-02-04T14:04:11;3.53;;;1.08;;
62102;SDS011;48077;48.104;11.702;2024-02-04T14:06:39;5.15;;;1.70;;
62102;SDS011;48077;48.104;11.702;2024-02-04T14:09:07;2.90;;;1.77;;
62102;SDS011;48077;48.104;11.702;2024-02-04T14:11:39;5.70;;;1.00;;
62102;SDS011;48077;48.104;11.702;2024-02-04T14:14:06;2.08;;;1.08;;
62102;SDS011;48077;48.104;11.702;2024-02-04T14:16:34;1.60;;;1.17;;
62102;SDS011;48077;48.104;11.702;2024-02-04T14:19:03;4.30;;;0.75;;
62102;SDS011;48077;48.104;11.702;2024-02-04T14:21:31;2.40;;;1.92;;
62102;SDS011;48077;48.104;11.702;2024-02-04T14:23:59;1.55;;;1.02;;
62102;SDS011;48077;48.104;11.702;2024-02-04T14:26:27;2.20;;;1.23;;
62102;SDS011;48077;48.104;11.702;2024-02-04T14:28:55;2.95;;;1.13;;
62102;SDS011;48077;48.104;11.702;2024-02-04T14:31:22;1.85;;;1.13;;
62102;SDS011;48077;48.104;11.702;2024-02-04T14:33:50;2.45;;;1.05;;
62102;SDS011;48077;48.104;11.702;2024-02-04T14:36:20;1.30;;;1.00;;
62102;SDS011;48077;48.104;11.702;2024-02-04T14:38:48;2.17;;;1.25;;
62102;SDS011;48077;48.104;11.702;2024-02-04T14:41:15;1.73;;;1.38;;
62102;SDS011;48077;48.104;11.702;2024-02-04T14:43:43;1.80;;;0.70;;
62102;SDS011;48077;48.104;11.702;2024-02-04T14:46:11;3.72;;;1.05;;
62102;SDS011;48077;48.104;11.702;2024-02-04T14:48:39;3.42;;;0.95;;
62102;SDS011;48077;48.104;11.702;2024-02-04T14:51:09;2.55;;;1.60;;
62102;SDS011;48077;48.104;11.702;2024-02-04T14:53:38;6.05;;;1.30;;
62102;SDS011;48077;48.104;11.702;2024-02-04T14:56:06;1.85;;;1.08;;
62102;SDS011;48077;48.104;11.702;2024-02-04T14:58:35;1.25;;;0.70;;
62102;SDS011;48077;48.104;11.702;2024-02-04T15:01:03;2.28;;;1.13;;
62102;SDS011;48077;48.104;11.702;2024-02-04T15:03:31;3.35;;;1.27;;
62102;SDS011;48077;48.104;11.702;2024-02-04T15:05:59;3.90;;;1.27;;
62102;SDS011;48077;48.104;11.702;2024-02-04T15:08:27;3.53;;;1.35;;
62102;SDS011;48077;48.104;11.702;2024-02-04T15:10:57;2.65;;;1.23;;
62102;SDS011;48077;48.104;11.702;2024-02-04T15:13:25;1.65;;;1.23;;
62102;SDS011;48077;48.104;11.702;2024-02-04T15:15:58;1.88;;;1.23;;
62102;SDS011;48077;48.104;11.702;2024-02-04T15:18:26;2.60;;;0.93;;
62102;SDS011;48077;48.104;11.702;2024-02-04T15:20:55;2.08;;;1.38;;
62102;SDS011;48077;48.104;11.702;2024-02-04T15:23:23;1.95;;;1.40;;
62102;SDS011;48077;48.104;11.702;2024-02-04T15:25:52;1.48;;;1.20;;
62102;SDS011;48077;48.104;11.702;2024-02-04T15:28:21;3.22;;;1.33;;
62102;SDS011;48077;48.104;11.702;2024-02-04T15:30:52;5.03;;;2.20;;
62102;SDS011;48077;48.104;11.702;2024-02-04T15:33:20;3.75;;;1.35;;
62102;SDS011;48077;48.104;11.702;2024-02-04T15:35:48;3.00;;;1.38;;
62102;SDS011;48077;48.104;11.702;2024-02-04T15:38:16;2.58;;;1.45;;
62102;SDS011;48077;48.104;11.702;2024-02-04T15:40:44;2.78;;;1.10;;
62102;SDS011;48077;48.104;11.702;2024-02-04T15:43:12;2.30;;;1.35;;
62102;SDS011;48077;48.104;11.702;2024-02-04T15:45:41;3.53;;;1.45;;
62102;SDS011;48077;48.104;11.702;2024-02-04T15:48:10;2.50;;;1.05;;